sensor_id;sensor_type;location;lat;lon;timestamp;pressure;altitude;pressure_sealevel;temperature;humidity
27304;BME280;14791;52.392;13.092;2023-10-13T00:00:30;100987.67;;;20.90;53.66
27304;BME280;14791;52.392;13.092;2023-10-13T00:03:00;100981.88;;;20.89;53.64
27304;BME280;14791;52.392;13.092;2023-10-13T00:05:30;100989.03;;;20.90;53.58
27304;BME280;14791;52.392;13.092;2023-10-13T00:08:03;100980.52;;;20.89;53.48
27304;BME280;14791;52.392;13.092;2023-10-13T00:10:33;100977.47;;;20.88;53.49
27304;BME280;14791;52.392;13.092;2023-10-13T00:13:02;100972.19;;;20.87;53.50
27304;BME280;14791;52.392;13.092;2023-10-13T00:15:46;100977.76;;;20.85;53.58
27304;BME280;14791;52.392;13.092;2023-10-13T00:18:29;100974.70;;;20.84;53.59
27304;BME280;14791;52.392;13.092;2023-10-13T00:21:02;100972.60;;;20.78;53.66
27304;BME280;14791;52.392;13.092;2023-10-13T00:23:35;100970.58;;;20.76;53.67
27304;BME280;14791;52.392;13.092;2023-10-13T00:26:04;100967.30;;;20.72;53.72
27304;BME280;14791;52.392;13.092;2023-10-13T00:28:35;100970.52;;;20.72;53.77
27304;BME280;14791;52.392;13.092;2023-10-13T00:31:05;100975.95;;;20.72;53.79
27304;BME280;14791;52.392;13.092;2023-10-13T00:33:41;100975.25;;;20.70;53.75
27304;BME280;14791;52.392;13.092;2023-10-13T00:36:10;100972.86;;;20.67;53.76
27304;BME280;14791;52.392;13.092;2023-10-13T00:38:41;100969.44;;;20.65;53.80
27304;BME280;14791;52.392;13.092;2023-10-13T00:41:10;100960.59;;;20.63;53.80
27304;BME280;14791;52.392;13.092;2023-10-13T00:43:47;100962.60;;;20.60;53.78
27304;BME280;14791;52.392;13.092;2023-10-13T00:46:21;100960.55;;;20.58;53.84
27304;BME280;14791;52.392;13.092;2023-10-13T00:48:51;100958.15;;;20.55;53.88
27304;BME280;14791;52.392;13.092;2023-10-13T00:51:21;100958.15;;;20.55;53.92
27304;BME280;14791;52.392;13.092;2023-10-13T00:54:09;100957.78;;;20.54;53.93
27304;BME280;14791;52.392;13.092;2023-10-13T00:56:42;100964.52;;;20.50;53.97
27304;BME280;14791;52.392;13.092;2023-10-13T00:59:16;100951.94;;;20.49;53.97
27304;BME280;14791;52.392;13.092;2023-10-13T01:01:47;100943.97;;;20.48;53.99
27304;BME280;14791;52.392;13.092;2023-10-13T01:04:17;100953.98;;;20.47;54.04
27304;BME280;14791;52.392;13.092;2023-10-13T01:06:46;100955.81;;;20.47;54.04
27304;BME280;14791;52.392;13.092;2023-10-13T01:09:16;100944.11;;;20.46;54.07
27304;BME280;14791;52.392;13.092;2023-10-13T01:11:49;100954.97;;;20.46;54.08
27304;BME280;14791;52.392;13.092;2023-10-13T01:14:22;100957.34;;;20.45;54.05
27304;BME280;14791;52.392;13.092;2023-10-13T01:16:53;100952.20;;;20.42;54.14
27304;BME280;14791;52.392;13.092;2023-10-13T01:19:23;100956.27;;;20.42;54.16
27304;BME280;14791;52.392;13.092;2023-10-13T01:21:55;100958.64;;;20.41;54.16
27304;BME280;14791;52.392;13.092;2023-10-13T01:24:32;100955.59;;;20.40;54.18
27304;BME280;14791;52.392;13.092;2023-10-13T01:27:05;100951.81;;;20.37;54.27
27304;BME280;14791;52.392;13.092;2023-10-13T01:29:49;100958.25;;;20.36;54.35
27304;BME280;14791;52.392;13.092;2023-10-13T01:32:21;100960.27;;;20.34;54.37
27304;BME280;14791;52.392;13.092;2023-10-13T01:34:50;100958.91;;;20.34;54.42
27304;BME280;14791;52.392;13.092;2023-10-13T01:37:20;100948.90;;;20.34;54.46
27304;BME280;14791;52.392;13.092;2023-10-13T01:39:50;100958.95;;;20.38;54.47
27304;BME280;14791;52.392;13.092;2023-10-13T01:42:19;100951.16;;;20.39;54.45
27304;BME280;14791;52.392;13.092;2023-10-13T01:44:49;100948.30;;;20.40;54.43
27304;BME280;14791;52.392;13.092;2023-10-13T01:47:18;100933.72;;;20.42;54.41
27304;BME280;14791;52.392;13.092;2023-10-13T01:49:50;100939.00;;;20.43;54.43
27304;BME280;14791;52.392;13.092;2023-10-13T01:52:19;100934.93;;;20.43;54.42
27304;BME280;14791;52.392;13.092;2023-10-13T01:54:50;100926.80;;;20.43;54.44
27304;BME280;14791;52.392;13.092;2023-10-13T01:57:19;100937.64;;;20.43;54.44
27304;BME280;14791;52.392;13.092;2023-10-13T01:59:51;100939.34;;;20.44;54.42
27304;BME280;14791;52.392;13.092;2023-10-13T02:02:23;100932.22;;;20.43;54.47
27304;BME280;14791;52.392;13.092;2023-10-13T02:04:56;100936.62;;;20.44;54.54
27304;BME280;14791;52.392;13.092;2023-10-13T02:07:27;100940.36;;;20.43;54.61
27304;BME280;14791;52.392;13.092;2023-10-13T02:09:57;100946.97;;;20.45;54.62
27304;BME280;14791;52.392;13.092;2023-10-13T02:12:26;100941.91;;;20.46;54.62
27304;BME280;14791;52.392;13.092;2023-10-13T02:15:00;100934.98;;;20.47;54.64
27304;BME280;14791;52.392;13.092;2023-10-13T02:17:29;100930.73;;;20.49;54.62
27304;BME280;14791;52.392;13.092;2023-10-13T02:19:59;100922.45;;;20.50;54.56
27304;BME280;14791;52.392;13.092;2023-10-13T02:22:30;100918.72;;;20.51;54.54
27304;BME280;14791;52.392;13.092;2023-10-13T02:24:59;100917.73;;;20.52;54.48
27304;BME280;14791;52.392;13.092;2023-10-13T02:27:35;100919.42;;;20.53;54.47
27304;BME280;14791;52.392;13.092;2023-10-13T02:30:11;100920.45;;;20.52;54.48
27304;BME280;14791;52.392;13.092;2023-10-13T02:32:43;100911.60;;;20.50;54.50
27304;BME280;14791;52.392;13.092;2023-10-13T02:35:12;100906.32;;;20.49;54.54
27304;BME280;14791;52.392;13.092;2023-10-13T02:37:45;100905.47;;;20.48;54.56
27304;BME280;14791;52.392;13.092;2023-10-13T02:40:15;100905.98;;;20.48;54.58
27304;BME280;14791;52.392;13.092;2023-10-13T02:42:46;100905.14;;;20.47;54.59
27304;BME280;14791;52.392;13.092;2023-10-13T02:45:15;100899.34;;;20.46;54.62
27304;BME280;14791;52.392;13.092;2023-10-13T02:47:45;100899.34;;;20.46;54.68
27304;BME280;14791;52.392;13.092;2023-10-13T02:50:16;100898.84;;;20.47;54.71
27304;BME280;14791;52.392;13.092;2023-10-13T02:52:45;100890.55;;;20.48;54.72
27304;BME280;14791;52.392;13.092;2023-10-13T02:55:16;100891.40;;;20.49;54.72
27304;BME280;14791;52.392;13.092;2023-10-13T02:57:46;100879.70;;;20.48;54.73
27304;BME280;14791;52.392;13.092;2023-10-13T03:00:16;100878.86;;;20.48;54.76
27304;BME280;14791;52.392;13.092;2023-10-13T03:02:45;100879.55;;;20.50;54.83
27304;BME280;14791;52.392;13.092;2023-10-13T03:05:16;100870.91;;;20.50;54.86
27304;BME280;14791;52.392;13.092;2023-10-13T03:07:45;100869.88;;;20.51;54.88
27304;BME280;14791;52.392;13.092;2023-10-13T03:10:14;100866.18;;;20.52;54.88
27304;BME280;14791;52.392;13.092;2023-10-13T03:12:45;100870.59;;;20.53;54.89
27304;BME280;14791;52.392;13.092;2023-10-13T03:15:15;100860.25;;;20.53;54.92
27304;BME280;14791;52.392;13.092;2023-10-13T03:17:49;100857.02;;;20.53;54.96
27304;BME280;14791;52.392;13.092;2023-10-13T03:22:48;100853.87;;;20.58;55.10
27304;BME280;14791;52.392;13.092;2023-10-13T03:25:19;100856.03;;;20.54;55.14
27304;BME280;14791;52.392;13.092;2023-10-13T03:27:53;100850.97;;;20.55;55.11
27304;BME280;14791;52.392;13.092;2023-10-13T03:30:23;100849.95;;;20.56;55.09
27304;BME280;14791;52.392;13.092;2023-10-13T03:32:54;100839.46;;;20.57;55.11
27304;BME280;14791;52.392;13.092;2023-10-13T03:35:23;100833.19;;;20.57;55.15
27304;BME280;14791;52.392;13.092;2023-10-13T03:37:52;100826.59;;;20.59;55.15
27304;BME280;14791;52.392;13.092;2023-10-13T03:40:22;100826.92;;;20.60;55.13
27304;BME280;14791;52.392;13.092;2023-10-13T03:42:58;100820.84;;;20.63;55.11
27304;BME280;14791;52.392;13.092;2023-10-13T03:48:15;100816.91;;;20.61;55.13
27304;BME280;14791;52.392;13.092;2023-10-13T03:50:56;100817.42;;;20.60;55.15
27304;BME280;14791;52.392;13.092;2023-10-13T03:53:42;100822.16;;;20.58;55.16
27304;BME280;14791;52.392;13.092;2023-10-13T03:56:25;100820.25;;;20.55;55.23
27304;BME280;14791;52.392;13.092;2023-10-13T03:58:56;100814.45;;;20.54;55.32
27304;BME280;14791;52.392;13.092;2023-10-13T04:01:37;100814.45;;;20.54;55.35
27304;BME280;14791;52.392;13.092;2023-10-13T04:04:15;100818.05;;;20.54;55.38
27304;BME280;14791;52.392;13.092;2023-10-13T04:06:46;100815.33;;;20.54;55.47
27304;BME280;14791;52.392;13.092;2023-10-13T04:09:17;100808.91;;;20.55;55.57
27304;BME280;14791;52.392;13.092;2023-10-13T04:12:05;100804.19;;;20.57;55.62
27304;BME280;14791;52.392;13.092;2023-10-13T04:14:43;100807.23;;;20.58;55.65
27304;BME280;14791;52.392;13.092;2023-10-13T04:17:30;100803.53;;;20.59;55.63
27304;BME280;14791;52.392;13.092;2023-10-13T04:20:04;100798.39;;;20.56;55.71
27304;BME280;14791;52.392;13.092;2023-10-13T04:22:38;100792.31;;;20.58;55.68
27304;BME280;14791;52.392;13.092;2023-10-13T04:25:23;100786.88;;;20.58;55.65
27304;BME280;14791;52.392;13.092;2023-10-13T04:28:14;100786.88;;;20.58;55.65
27304;BME280;14791;52.392;13.092;2023-10-13T04:30:49;100780.53;;;20.54;55.71
27304;BME280;14791;52.392;13.092;2023-10-13T04:33:29;100778.34;;;20.53;55.74
27304;BME280;14791;52.392;13.092;2023-10-13T04:36:13;100773.94;;;20.52;55.76
27304;BME280;14791;52.392;13.092;2023-10-13T04:38:58;100771.55;;;20.53;55.73
27304;BME280;14791;52.392;13.092;2023-10-13T04:41:30;100773.23;;;20.50;55.81
27304;BME280;14791;52.392;13.092;2023-10-13T04:44:16;100766.78;;;20.51;55.87
27304;BME280;14791;52.392;13.092;2023-10-13T04:47:03;100763.08;;;20.52;55.96
27304;BME280;14791;52.392;13.092;2023-10-13T04:49:39;100757.95;;;20.49;55.99
27304;BME280;14791;52.392;13.092;2023-10-13T04:52:16;100750.17;;;20.50;56.03
27304;BME280;14791;52.392;13.092;2023-10-13T04:54:50;100752.56;;;20.53;56.00
27304;BME280;14791;52.392;13.092;2023-10-13T04:57:23;100753.41;;;20.54;56.04
27304;BME280;14791;52.392;13.092;2023-10-13T05:00:11;100757.00;;;20.54;56.06
27304;BME280;14791;52.392;13.092;2023-10-13T05:02:43;100762.05;;;20.53;56.19
27304;BME280;14791;52.392;13.092;2023-10-13T05:05:29;100759.71;;;20.54;56.21
27304;BME280;14791;52.392;13.092;2023-10-13T05:08:15;100753.30;;;20.55;56.27
27304;BME280;14791;52.392;13.092;2023-10-13T05:11:05;100753.30;;;20.55;56.34
27304;BME280;14791;52.392;13.092;2023-10-13T05:13:52;100751.94;;;20.55;56.37
27304;BME280;14791;52.392;13.092;2023-10-13T05:16:39;100752.78;;;20.56;56.41
27304;BME280;14791;52.392;13.092;2023-10-13T05:19:25;100751.27;;;20.57;56.39
27304;BME280;14791;52.392;13.092;2023-10-13T05:22:12;100744.49;;;20.57;56.35
27304;BME280;14791;52.392;13.092;2023-10-13T05:24:59;100736.35;;;20.57;56.31
27304;BME280;14791;52.392;13.092;2023-10-13T05:27:48;100733.64;;;20.57;56.35
27304;BME280;14791;52.392;13.092;2023-10-13T05:30:34;100754.83;;;20.58;56.36
27304;BME280;14791;52.392;13.092;2023-10-13T05:33:21;100747.53;;;20.58;56.43
27304;BME280;14791;52.392;13.092;2023-10-13T05:36:11;100740.75;;;20.58;56.30
27304;BME280;14791;52.392;13.092;2023-10-13T05:38:58;100748.89;;;20.58;56.28
27304;BME280;14791;52.392;13.092;2023-10-13T05:41:45;100751.94;;;20.55;56.29
27304;BME280;14791;52.392;13.092;2023-10-13T05:44:31;100752.23;;;20.52;56.30
27304;BME280;14791;52.392;13.092;2023-10-13T05:47:07;100755.23;;;20.49;56.30
27304;BME280;14791;52.392;13.092;2023-10-13T05:49:53;100749.14;;;20.47;56.33
27304;BME280;14791;52.392;13.092;2023-10-13T05:52:24;100742.33;;;20.43;56.41
27304;BME280;14791;52.392;13.092;2023-10-13T05:55:11;100746.03;;;20.42;56.47
27304;BME280;14791;52.392;13.092;2023-10-13T05:57:57;100731.95;;;20.38;56.57
27304;BME280;14791;52.392;13.092;2023-10-13T06:00:44;100726.15;;;20.33;56.70
27304;BME280;14791;52.392;13.092;2023-10-13T06:03:31;100732.74;;;20.31;56.85
27304;BME280;14791;52.392;13.092;2023-10-13T06:06:18;100737.98;;;20.28;57.00
27304;BME280;14791;52.392;13.092;2023-10-13T06:09:04;100731.02;;;20.26;57.18
27304;BME280;14791;52.392;13.092;2023-10-13T06:11:51;100725.08;;;20.26;57.33
27304;BME280;14791;52.392;13.092;2023-10-13T06:14:38;100736.62;;;20.28;57.49
27304;BME280;14791;52.392;13.092;2023-10-13T06:17:25;100730.52;;;20.30;57.61
27304;BME280;14791;52.392;13.092;2023-10-13T06:20:12;100721.72;;;20.32;57.64
27304;BME280;14791;52.392;13.092;2023-10-13T06:22:58;100723.77;;;20.34;57.63
27304;BME280;14791;52.392;13.092;2023-10-13T06:25:53;100729.38;;;20.37;57.68
27304;BME280;14791;52.392;13.092;2023-10-13T06:28:40;100722.27;;;20.36;57.70
27304;BME280;14791;52.392;13.092;2023-10-13T06:31:10;100729.38;;;20.37;57.81
27304;BME280;14791;52.392;13.092;2023-10-13T06:33:53;100723.48;;;20.42;57.81
27304;BME280;14791;52.392;13.092;2023-10-13T06:36:23;100730.81;;;20.45;57.81
27304;BME280;14791;52.392;13.092;2023-10-13T06:38:53;100715.89;;;20.49;57.83
27304;BME280;14791;52.392;13.092;2023-10-13T06:41:26;100713.95;;;20.55;57.77
27304;BME280;14791;52.392;13.092;2023-10-13T06:44:03;100710.58;;;20.57;57.83
27304;BME280;14791;52.392;13.092;2023-10-13T06:46:33;100715.01;;;20.63;57.95
27304;BME280;14791;52.392;13.092;2023-10-13T06:49:02;100714.86;;;20.68;58.01
27304;BME280;14791;52.392;13.092;2023-10-13T06:51:32;100713.39;;;20.74;58.03
27304;BME280;14791;52.392;13.092;2023-10-13T06:54:02;100716.80;;;20.80;58.06
27304;BME280;14791;52.392;13.092;2023-10-13T06:56:31;100723.28;;;20.87;58.10
27304;BME280;14791;52.392;13.092;2023-10-13T06:59:02;100726.20;;;20.94;58.12
27304;BME280;14791;52.392;13.092;2023-10-13T07:01:32;100720.47;;;21.01;58.18
27304;BME280;14791;52.392;13.092;2023-10-13T07:04:07;100725.44;;;21.10;58.16
27304;BME280;14791;52.392;13.092;2023-10-13T07:06:42;100716.47;;;21.17;58.16
27304;BME280;14791;52.392;13.092;2023-10-13T07:09:18;100715.13;;;21.25;58.16
27304;BME280;14791;52.392;13.092;2023-10-13T07:12:05;100705.66;;;21.34;58.08
27304;BME280;14791;52.392;13.092;2023-10-13T07:14:53;100701.78;;;21.40;57.94
27304;BME280;14791;52.392;13.092;2023-10-13T07:17:29;100703.00;;;21.46;57.97
27304;BME280;14791;52.392;13.092;2023-10-13T07:20:00;100710.83;;;21.53;57.92
27304;BME280;14791;52.392;13.092;2023-10-13T07:22:30;100710.31;;;21.62;57.82
27304;BME280;14791;52.392;13.092;2023-10-13T07:25:01;100710.67;;;21.71;57.77
27304;BME280;14791;52.392;13.092;2023-10-13T07:27:32;100711.55;;;21.80;57.63
27304;BME280;14791;52.392;13.092;2023-10-13T07:30:03;100707.98;;;21.87;57.49
27304;BME280;14791;52.392;13.092;2023-10-13T07:32:37;100706.80;;;21.94;57.33
27304;BME280;14791;52.392;13.092;2023-10-13T07:35:08;100710.38;;;22.03;57.30
27304;BME280;14791;52.392;13.092;2023-10-13T07:37:39;100706.96;;;22.09;57.19
27304;BME280;14791;52.392;13.092;2023-10-13T07:40:09;100704.58;;;22.14;57.09
27304;BME280;14791;52.392;13.092;2023-10-13T07:42:53;100711.06;;;22.21;56.96
27304;BME280;14791;52.392;13.092;2023-10-13T07:45:23;100695.43;;;22.23;56.97
27304;BME280;14791;52.392;13.092;2023-10-13T07:47:57;100691.67;;;22.28;57.01
27304;BME280;14791;52.392;13.092;2023-10-13T07:50:28;100699.84;;;22.37;57.05
27304;BME280;14791;52.392;13.092;2023-10-13T07:53:00;100705.27;;;22.45;56.92
27304;BME280;14791;52.392;13.092;2023-10-13T07:55:32;100683.30;;;22.55;56.78
27304;BME280;14791;52.392;13.092;2023-10-13T07:58:01;100689.94;;;22.60;56.69
27304;BME280;14791;52.392;13.092;2023-10-13T08:00:32;100696.38;;;22.67;56.60
27304;BME280;14791;52.392;13.092;2023-10-13T08:03:08;100677.13;;;22.73;56.44
27304;BME280;14791;52.392;13.092;2023-10-13T08:05:51;100672.52;;;22.78;56.33
27304;BME280;14791;52.392;13.092;2023-10-13T08:08:17;100683.38;;;22.82;56.21
27304;BME280;14791;52.392;13.092;2023-10-13T08:10:46;100678.12;;;22.84;56.11
27304;BME280;14791;52.392;13.092;2023-10-13T08:13:16;100671.47;;;22.87;56.13
27304;BME280;14791;52.392;13.092;2023-10-13T08:15:46;100669.06;;;22.92;56.07
27304;BME280;14791;52.392;13.092;2023-10-13T08:18:16;100672.78;;;22.95;56.08
27304;BME280;14791;52.392;13.092;2023-10-13T08:21:03;100666.52;;;22.99;56.02
27304;BME280;14791;52.392;13.092;2023-10-13T08:23:34;100678.58;;;23.00;56.07
27304;BME280;14791;52.392;13.092;2023-10-13T08:26:09;100673.28;;;23.03;56.02
27304;BME280;14791;52.392;13.092;2023-10-13T08:28:51;100660.86;;;23.04;56.16
27304;BME280;14791;52.392;13.092;2023-10-13T08:31:24;100654.05;;;23.04;56.29
27304;BME280;14791;52.392;13.092;2023-10-13T08:33:57;100647.72;;;23.08;56.52
27304;BME280;14791;52.392;13.092;2023-10-13T08:36:35;100639.88;;;23.13;56.59
27304;BME280;14791;52.392;13.092;2023-10-13T08:39:06;100634.74;;;23.18;56.56
27304;BME280;14791;52.392;13.092;2023-10-13T08:41:52;100634.84;;;23.25;56.49
27304;BME280;14791;52.392;13.092;2023-10-13T08:44:23;100636.19;;;23.29;56.52
27304;BME280;14791;52.392;13.092;2023-10-13T08:46:56;100625.75;;;23.36;56.45
27304;BME280;14791;52.392;13.092;2023-10-13T08:49:33;100627.77;;;23.43;56.36
27304;BME280;14791;52.392;13.092;2023-10-13T08:52:04;100632.67;;;23.47;56.23
27304;BME280;14791;52.392;13.092;2023-10-13T08:54:35;100635.17;;;23.53;56.15
27304;BME280;14791;52.392;13.092;2023-10-13T08:57:08;100630.89;;;23.59;56.06
27304;BME280;14791;52.392;13.092;2023-10-13T08:59:55;100634.23;;;23.65;55.89
27304;BME280;14791;52.392;13.092;2023-10-13T09:02:26;100633.02;;;23.67;55.85
27304;BME280;14791;52.392;13.092;2023-10-13T09:05:13;100629.75;;;23.72;55.78
27304;BME280;14791;52.392;13.092;2023-10-13T09:07:45;100627.20;;;23.74;55.72
27304;BME280;14791;52.392;13.092;2023-10-13T09:10:22;100620.88;;;23.78;55.60
27304;BME280;14791;52.392;13.092;2023-10-13T09:12:55;100615.05;;;23.81;55.46
27304;BME280;14791;52.392;13.092;2023-10-13T09:15:31;100610.27;;;23.83;55.21
27304;BME280;14791;52.392;13.092;2023-10-13T09:18:28;100612.98;;;23.83;55.08
27304;BME280;14791;52.392;13.092;2023-10-13T09:21:14;100609.97;;;23.78;55.13
27304;BME280;14791;52.392;13.092;2023-10-13T09:23:47;100610.66;;;23.72;55.25
27304;BME280;14791;52.392;13.092;2023-10-13T09:26:16;100615.45;;;23.70;55.17
27304;BME280;14791;52.392;13.092;2023-10-13T09:28:47;100602.19;;;23.67;55.10
27304;BME280;14791;52.392;13.092;2023-10-13T09:31:21;100597.11;;;23.64;55.12
27304;BME280;14791;52.392;13.092;2023-10-13T09:33:49;100589.48;;;23.59;55.21
27304;BME280;14791;52.392;13.092;2023-10-13T09:36:18;100584.05;;;23.55;55.43
27304;BME280;14791;52.392;13.092;2023-10-13T09:38:48;100588.31;;;23.53;55.66
27304;BME280;14791;52.392;13.092;2023-10-13T09:41:19;100578.45;;;23.52;55.62
27304;BME280;14791;52.392;13.092;2023-10-13T09:43:49;100583.91;;;23.52;55.58
27304;BME280;14791;52.392;13.092;2023-10-13T09:46:20;100575.27;;;23.49;55.57
27304;BME280;14791;52.392;13.092;2023-10-13T09:49:05;100571.88;;;23.47;55.66
27304;BME280;14791;52.392;13.092;2023-10-13T09:51:40;100562.82;;;23.46;55.91
27304;BME280;14791;52.392;13.092;2023-10-13T09:54:20;100554.99;;;23.47;56.09
27304;BME280;14791;52.392;13.092;2023-10-13T09:56:50;100547.28;;;23.51;56.20
27304;BME280;14791;52.392;13.092;2023-10-13T09:59:31;100538.23;;;23.54;56.28
27304;BME280;14791;52.392;13.092;2023-10-13T10:01:59;100547.55;;;23.60;56.44
27304;BME280;14791;52.392;13.092;2023-10-13T10:04:31;100551.75;;;23.67;56.38
27304;BME280;14791;52.392;13.092;2023-10-13T10:07:01;100540.30;;;23.71;56.18
27304;BME280;14791;52.392;13.092;2023-10-13T10:09:32;100541.13;;;23.76;56.08
27304;BME280;14791;52.392;13.092;2023-10-13T10:12:13;100534.64;;;23.77;55.94
27304;BME280;14791;52.392;13.092;2023-10-13T10:17:43;100541.66;;;23.75;55.82
27304;BME280;14791;52.392;13.092;2023-10-13T10:20:13;100529.94;;;23.67;55.74
27304;BME280;14791;52.392;13.092;2023-10-13T10:22:58;100540.59;;;23.57;55.87
27304;BME280;14791;52.392;13.092;2023-10-13T10:25:32;100533.86;;;23.49;55.99
27304;BME280;14791;52.392;13.092;2023-10-13T10:28:06;100535.27;;;23.41;56.20
27304;BME280;14791;52.392;13.092;2023-10-13T10:30:37;100529.91;;;23.33;56.39
27304;BME280;14791;52.392;13.092;2023-10-13T10:33:07;100527.58;;;23.26;56.59
27304;BME280;14791;52.392;13.092;2023-10-13T10:35:40;100517.55;;;23.22;56.75
27304;BME280;14791;52.392;13.092;2023-10-13T10:38:15;100517.92;;;23.19;56.94
27304;BME280;14791;52.392;13.092;2023-10-13T10:41:07;100513.69;;;23.17;56.97
27304;BME280;14791;52.392;13.092;2023-10-13T10:43:38;100505.22;;;23.11;57.20
27304;BME280;14791;52.392;13.092;2023-10-13T10:48:51;100482.75;;;23.09;57.46
27304;BME280;14791;52.392;13.092;2023-10-13T10:51:22;100490.25;;;23.07;57.54
27304;BME280;14791;52.392;13.092;2023-10-13T10:53:52;100471.19;;;23.07;57.66
27304;BME280;14791;52.392;13.092;2023-10-13T10:56:25;100474.27;;;23.08;57.81
27304;BME280;14791;52.392;13.092;2023-10-13T10:58:57;100471.33;;;23.10;57.87
27304;BME280;14791;52.392;13.092;2023-10-13T11:01:29;100475.56;;;23.12;57.97
27304;BME280;14791;52.392;13.092;2023-10-13T11:04:07;100479.62;;;23.17;58.07
27304;BME280;14791;52.392;13.092;2023-10-13T11:06:36;100456.09;;;23.20;58.00
27304;BME280;14791;52.392;13.092;2023-10-13T11:09:10;100460.33;;;23.22;58.10
27304;BME280;14791;52.392;13.092;2023-10-13T11:11:57;100455.03;;;23.25;58.13
27304;BME280;14791;52.392;13.092;2023-10-13T11:14:27;100456.56;;;23.27;58.17
27304;BME280;14791;52.392;13.092;2023-10-13T11:16:58;100454.45;;;23.33;58.07
27304;BME280;14791;52.392;13.092;2023-10-13T11:19:39;100447.40;;;23.39;58.10
27304;BME280;14791;52.392;13.092;2023-10-13T11:22:14;100448.21;;;23.44;58.04
27304;BME280;14791;52.392;13.092;2023-10-13T11:25:05;100446.29;;;23.48;57.96
27304;BME280;14791;52.392;13.092;2023-10-13T11:27:38;100442.34;;;23.51;57.86
27304;BME280;14791;52.392;13.092;2023-10-13T11:30:19;100442.84;;;23.54;57.75
27304;BME280;14791;52.392;13.092;2023-10-13T11:33:01;100445.17;;;23.57;57.61
27304;BME280;14791;52.392;13.092;2023-10-13T11:35:41;100447.88;;;23.62;57.52
27304;BME280;14791;52.392;13.092;2023-10-13T11:41:03;100418.55;;;23.64;57.50
27304;BME280;14791;52.392;13.092;2023-10-13T11:43:41;100414.08;;;23.67;57.46
27304;BME280;14791;52.392;13.092;2023-10-13T11:46:25;100412.67;;;23.71;57.41
27304;BME280;14791;52.392;13.092;2023-10-13T11:48:56;100402.43;;;23.73;57.40
27304;BME280;14791;52.392;13.092;2023-10-13T11:51:26;100402.08;;;23.76;57.38
27304;BME280;14791;52.392;13.092;2023-10-13T11:53:57;100385.98;;;23.81;57.32
27304;BME280;14791;52.392;13.092;2023-10-13T11:56:26;100388.47;;;23.87;57.21
27304;BME280;14791;52.392;13.092;2023-10-13T11:58:55;100385.52;;;23.92;57.18
27304;BME280;14791;52.392;13.092;2023-10-13T12:01:26;100382.67;;;24.01;57.11
27304;BME280;14791;52.392;13.092;2023-10-13T12:03:56;100371.19;;;24.05;57.02
27304;BME280;14791;52.392;13.092;2023-10-13T12:06:43;100372.63;;;24.12;57.00
27304;BME280;14791;52.392;13.092;2023-10-13T12:09:16;100367.97;;;24.16;57.02
27304;BME280;14791;52.392;13.092;2023-10-13T12:11:50;100373.51;;;24.23;56.93
27304;BME280;14791;52.392;13.092;2023-10-13T12:14:20;100358.36;;;24.31;56.85
27304;BME280;14791;52.392;13.092;2023-10-13T12:16:57;100355.00;;;24.40;56.60
27304;BME280;14791;52.392;13.092;2023-10-13T12:19:28;100360.20;;;24.46;56.47
27304;BME280;14791;52.392;13.092;2023-10-13T12:21:57;100353.27;;;24.54;56.32
27304;BME280;14791;52.392;13.092;2023-10-13T12:24:28;100351.44;;;24.61;56.21
27304;BME280;14791;52.392;13.092;2023-10-13T12:27:07;100366.87;;;24.69;56.11
27304;BME280;14791;52.392;13.092;2023-10-13T12:29:53;100346.95;;;24.75;56.07
27304;BME280;14791;52.392;13.092;2023-10-13T12:32:21;100344.59;;;24.82;55.95
27304;BME280;14791;52.392;13.092;2023-10-13T12:34:54;100344.12;;;24.90;55.85
27304;BME280;14791;52.392;13.092;2023-10-13T12:37:29;100344.12;;;25.00;55.87
27304;BME280;14791;52.392;13.092;2023-10-13T12:40:10;100339.67;;;25.10;55.80
27304;BME280;14791;52.392;13.092;2023-10-13T12:42:55;100326.52;;;25.20;55.71
27304;BME280;14791;52.392;13.092;2023-10-13T12:45:42;100315.23;;;25.30;55.60
27304;BME280;14791;52.392;13.092;2023-10-13T12:48:30;100310.45;;;25.39;55.50
27304;BME280;14791;52.392;13.092;2023-10-13T12:51:17;100308.91;;;25.47;55.34
27304;BME280;14791;52.392;13.092;2023-10-13T12:53:53;100311.80;;;25.56;55.16
27304;BME280;14791;52.392;13.092;2023-10-13T12:56:22;100307.12;;;25.67;54.77
27304;BME280;14791;52.392;13.092;2023-10-13T12:58:57;100296.64;;;25.78;54.48
27304;BME280;14791;52.392;13.092;2023-10-13T13:01:26;100299.23;;;25.86;54.40
27304;BME280;14791;52.392;13.092;2023-10-13T13:03:56;100286.31;;;25.97;54.25
27304;BME280;14791;52.392;13.092;2023-10-13T13:06:26;100288.75;;;26.09;54.03
27304;BME280;14791;52.392;13.092;2023-10-13T13:08:58;100279.95;;;26.21;53.90
27304;BME280;14791;52.392;13.092;2023-10-13T13:11:28;100263.02;;;26.35;53.76
27304;BME280;14791;52.392;13.092;2023-10-13T13:13:57;100265.24;;;26.48;53.49
27304;BME280;14791;52.392;13.092;2023-10-13T13:16:26;100261.98;;;26.62;53.11
27304;BME280;14791;52.392;13.092;2023-10-13T13:18:57;100262.83;;;26.76;52.78
27304;BME280;14791;52.392;13.092;2023-10-13T13:21:25;100258.18;;;26.90;52.65
27304;BME280;14791;52.392;13.092;2023-10-13T13:23:55;100259.54;;;27.03;52.40
27304;BME280;14791;52.392;13.092;2023-10-13T13:26:23;100259.83;;;27.11;51.96
27304;BME280;14791;52.392;13.092;2023-10-13T13:28:52;100259.69;;;27.15;51.59
27304;BME280;14791;52.392;13.092;2023-10-13T13:31:23;100264.13;;;27.16;51.46
27304;BME280;14791;52.392;13.092;2023-10-13T13:33:56;100260.66;;;27.18;51.26